sensor_id;sensor_type;location;lat;lon;timestamp;P1;durP1;ratioP1;P2;durP2;ratioP2
9948;SDS011;5013;51.840;8.276;2023-12-20T00:01:18;18.40;;;10.20;;
9948;SDS011;5013;51.840;8.276;2023-12-20T00:03:44;16.30;;;10.03;;
9948;SDS011;5013;51.840;8.276;2023-12-20T00:06:09;12.77;;;9.00;;
9948;SDS011;5013;51.840;8.276;2023-12-20T00:08:35;14.23;;;9.40;;
9948;SDS011;5013;51.840;8.276;2023-12-20T00:11:01;13.93;;;9.10;;
9948;SDS011;5013;51.840;8.276;2023-12-20T00:13:27;12.47;;;8.53;;
9948;SDS011;5013;51.840;8.276;2023-12-20T00:15:52;10.10;;;8.20;;
9948;SDS011;5013;51.840;8.276;2023-12-20T00:18:18;13.17;;;8.63;;
9948;SDS011;5013;51.840;8.276;2023-12-20T00:20:43;11.67;;;7.87;;
9948;SDS011;5013;51.840;8.276;2023-12-20T00:23:09;11.57;;;8.20;;
9948;SDS011;5013;51.840;8.276;2023-12-20T00:25:35;14.67;;;7.80;;
9948;SDS011;5013;51.840;8.276;2023-12-20T00:28:00;15.80;;;7.70;;
9948;SDS011;5013;51.840;8.276;2023-12-20T00:30:27;10.03;;;7.07;;
9948;SDS011;5013;51.840;8.276;2023-12-20T00:32:53;14.97;;;6.80;;
9948;SDS011;5013;51.840;8.276;2023-12-20T00:35:18;12.80;;;7.30;;
9948;SDS011;5013;51.840;8.276;2023-12-20T00:37:44;12.30;;;6.87;;
9948;SDS011;5013;51.840;8.276;2023-12-20T00:40:10;11.87;;;7.27;;
9948;SDS011;5013;51.840;8.276;2023-12-20T00:42:36;10.93;;;7.80;;
9948;SDS011;5013;51.840;8.276;2023-12-20T00:45:02;13.13;;;7.20;;
9948;SDS011;5013;51.840;8.276;2023-12-20T00:47:29;11.57;;;6.63;;
9948;SDS011;5013;51.840;8.276;2023-12-20T00:49:55;9.63;;;6.03;;
9948;SDS011;5013;51.840;8.276;2023-12-20T00:52:21;11.07;;;6.40;;
9948;SDS011;5013;51.840;8.276;2023-12-20T00:54:47;9.67;;;5.73;;
9948;SDS011;5013;51.840;8.276;2023-12-20T00:57:13;9.60;;;5.70;;
9948;SDS011;5013;51.840;8.276;2023-12-20T00:59:39;14.73;;;6.27;;
9948;SDS011;5013;51.840;8.276;2023-12-20T01:02:04;7.70;;;6.17;;
9948;SDS011;5013;51.840;8.276;2023-12-20T01:04:30;9.97;;;5.70;;
9948;SDS011;5013;51.840;8.276;2023-12-20T01:06:56;15.40;;;6.87;;
9948;SDS011;5013;51.840;8.276;2023-12-20T01:09:21;9.50;;;6.07;;
9948;SDS011;5013;51.840;8.276;2023-12-20T01:11:51;16.20;;;7.50;;
9948;SDS011;5013;51.840;8.276;2023-12-20T01:14:20;14.40;;;8.00;;
9948;SDS011;5013;51.840;8.276;2023-12-20T01:16:46;13.47;;;8.20;;
9948;SDS011;5013;51.840;8.276;2023-12-20T01:19:12;18.60;;;9.10;;
9948;SDS011;5013;51.840;8.276;2023-12-20T01:21:39;15.57;;;8.57;;
9948;SDS011;5013;51.840;8.276;2023-12-20T01:24:04;13.53;;;9.07;;
9948;SDS011;5013;51.840;8.276;2023-12-20T01:26:30;15.10;;;9.00;;
9948;SDS011;5013;51.840;8.276;2023-12-20T01:28:55;12.80;;;8.57;;
9948;SDS011;5013;51.840;8.276;2023-12-20T01:31:21;16.33;;;9.30;;
9948;SDS011;5013;51.840;8.276;2023-12-20T01:33:46;18.30;;;10.33;;
9948;SDS011;5013;51.840;8.276;2023-12-20T01:36:12;15.47;;;8.40;;
9948;SDS011;5013;51.840;8.276;2023-12-20T01:38:38;17.60;;;9.10;;
9948;SDS011;5013;51.840;8.276;2023-12-20T01:41:04;16.07;;;8.27;;
9948;SDS011;5013;51.840;8.276;2023-12-20T01:43:29;16.40;;;8.20;;
9948;SDS011;5013;51.840;8.276;2023-12-20T01:45:55;18.20;;;8.77;;
9948;SDS011;5013;51.840;8.276;2023-12-20T01:48:23;15.13;;;8.70;;
9948;SDS011;5013;51.840;8.276;2023-12-20T01:50:53;19.63;;;8.53;;
9948;SDS011;5013;51.840;8.276;2023-12-20T01:53:19;17.87;;;9.77;;
9948;SDS011;5013;51.840;8.276;2023-12-20T01:55:46;19.73;;;8.73;;
9948;SDS011;5013;51.840;8.276;2023-12-20T01:58:13;15.10;;;9.80;;
9948;SDS011;5013;51.840;8.276;2023-12-20T02:00:40;16.70;;;8.30;;
9948;SDS011;5013;51.840;8.276;2023-12-20T02:03:06;17.53;;;9.47;;
9948;SDS011;5013;51.840;8.276;2023-12-20T02:05:33;18.60;;;9.80;;
9948;SDS011;5013;51.840;8.276;2023-12-20T02:08:00;18.37;;;9.70;;
9948;SDS011;5013;51.840;8.276;2023-12-20T02:10:26;21.73;;;9.90;;
9948;SDS011;5013;51.840;8.276;2023-12-20T02:12:52;15.93;;;9.07;;
9948;SDS011;5013;51.840;8.276;2023-12-20T02:15:17;23.57;;;10.30;;
9948;SDS011;5013;51.840;8.276;2023-12-20T02:17:43;16.07;;;9.23;;
9948;SDS011;5013;51.840;8.276;2023-12-20T02:20:09;15.73;;;10.10;;
9948;SDS011;5013;51.840;8.276;2023-12-20T02:22:35;20.80;;;10.00;;
9948;SDS011;5013;51.840;8.276;2023-12-20T02:25:00;19.77;;;9.93;;
9948;SDS011;5013;51.840;8.276;2023-12-20T02:27:26;19.17;;;9.67;;
9948;SDS011;5013;51.840;8.276;2023-12-20T02:29:52;21.27;;;10.23;;
9948;SDS011;5013;51.840;8.276;2023-12-20T02:32:18;21.13;;;9.93;;
9948;SDS011;5013;51.840;8.276;2023-12-20T02:34:46;15.17;;;8.93;;
9948;SDS011;5013;51.840;8.276;2023-12-20T02:37:13;18.73;;;9.37;;
9948;SDS011;5013;51.840;8.276;2023-12-20T02:39:38;27.43;;;10.03;;
9948;SDS011;5013;51.840;8.276;2023-12-20T02:42:04;18.43;;;10.17;;
9948;SDS011;5013;51.840;8.276;2023-12-20T02:44:29;21.90;;;9.30;;
9948;SDS011;5013;51.840;8.276;2023-12-20T02:46:55;23.17;;;9.07;;
9948;SDS011;5013;51.840;8.276;2023-12-20T02:49:20;20.10;;;9.53;;
9948;SDS011;5013;51.840;8.276;2023-12-20T02:51:46;20.27;;;10.57;;
9948;SDS011;5013;51.840;8.276;2023-12-20T02:54:12;22.60;;;9.73;;
9948;SDS011;5013;51.840;8.276;2023-12-20T02:56:37;17.63;;;10.37;;
9948;SDS011;5013;51.840;8.276;2023-12-20T02:59:03;22.33;;;10.70;;
9948;SDS011;5013;51.840;8.276;2023-12-20T03:01:30;16.33;;;9.73;;
9948;SDS011;5013;51.840;8.276;2023-12-20T03:03:56;22.70;;;11.03;;
9948;SDS011;5013;51.840;8.276;2023-12-20T03:06:22;29.17;;;12.00;;
9948;SDS011;5013;51.840;8.276;2023-12-20T03:08:47;20.63;;;10.83;;
9948;SDS011;5013;51.840;8.276;2023-12-20T03:11:13;26.00;;;11.60;;
9948;SDS011;5013;51.840;8.276;2023-12-20T03:13:38;22.57;;;11.17;;
9948;SDS011;5013;51.840;8.276;2023-12-20T03:16:10;23.13;;;11.10;;
9948;SDS011;5013;51.840;8.276;2023-12-20T03:18:36;24.90;;;10.80;;
9948;SDS011;5013;51.840;8.276;2023-12-20T03:21:02;21.80;;;10.00;;
9948;SDS011;5013;51.840;8.276;2023-12-20T03:23:29;22.37;;;9.73;;
9948;SDS011;5013;51.840;8.276;2023-12-20T03:25:55;25.97;;;9.67;;
9948;SDS011;5013;51.840;8.276;2023-12-20T03:28:21;18.73;;;9.03;;
9948;SDS011;5013;51.840;8.276;2023-12-20T03:30:48;21.00;;;10.27;;
9948;SDS011;5013;51.840;8.276;2023-12-20T03:33:14;26.20;;;9.40;;
9948;SDS011;5013;51.840;8.276;2023-12-20T03:35:39;20.63;;;9.33;;
9948;SDS011;5013;51.840;8.276;2023-12-20T03:38:05;25.90;;;9.60;;
9948;SDS011;5013;51.840;8.276;2023-12-20T03:40:30;23.23;;;8.70;;
9948;SDS011;5013;51.840;8.276;2023-12-20T03:42:56;22.23;;;8.83;;
9948;SDS011;5013;51.840;8.276;2023-12-20T03:45:21;25.17;;;9.50;;
9948;SDS011;5013;51.840;8.276;2023-12-20T03:47:47;20.67;;;8.13;;
9948;SDS011;5013;51.840;8.276;2023-12-20T03:50:13;28.60;;;9.47;;
9948;SDS011;5013;51.840;8.276;2023-12-20T03:52:39;18.73;;;8.43;;
9948;SDS011;5013;51.840;8.276;2023-12-20T03:55:04;28.83;;;9.40;;
9948;SDS011;5013;51.840;8.276;2023-12-20T03:57:30;28.23;;;9.23;;
9948;SDS011;5013;51.840;8.276;2023-12-20T03:59:56;25.57;;;9.83;;
9948;SDS011;5013;51.840;8.276;2023-12-20T04:02:21;22.50;;;8.30;;
9948;SDS011;5013;51.840;8.276;2023-12-20T04:04:47;18.73;;;7.53;;
9948;SDS011;5013;51.840;8.276;2023-12-20T04:07:12;21.73;;;8.70;;
9948;SDS011;5013;51.840;8.276;2023-12-20T04:09:38;23.27;;;8.10;;
9948;SDS011;5013;51.840;8.276;2023-12-20T04:12:05;26.50;;;8.13;;
9948;SDS011;5013;51.840;8.276;2023-12-20T04:14:31;25.97;;;8.03;;
9948;SDS011;5013;51.840;8.276;2023-12-20T04:16:57;22.60;;;7.20;;
9948;SDS011;5013;51.840;8.276;2023-12-20T04:19:22;27.60;;;8.33;;
9948;SDS011;5013;51.840;8.276;2023-12-20T04:21:48;20.43;;;7.30;;
9948;SDS011;5013;51.840;8.276;2023-12-20T04:24:13;24.23;;;6.70;;
9948;SDS011;5013;51.840;8.276;2023-12-20T04:26:39;17.63;;;5.80;;
9948;SDS011;5013;51.840;8.276;2023-12-20T04:29:04;23.20;;;6.77;;
9948;SDS011;5013;51.840;8.276;2023-12-20T04:31:30;28.43;;;6.00;;
9948;SDS011;5013;51.840;8.276;2023-12-20T04:33:55;29.40;;;6.77;;
9948;SDS011;5013;51.840;8.276;2023-12-20T04:36:21;27.83;;;6.27;;
9948;SDS011;5013;51.840;8.276;2023-12-20T04:38:46;18.00;;;7.27;;
9948;SDS011;5013;51.840;8.276;2023-12-20T04:41:12;26.53;;;7.20;;
9948;SDS011;5013;51.840;8.276;2023-12-20T04:43:40;20.40;;;5.87;;
9948;SDS011;5013;51.840;8.276;2023-12-20T04:46:06;16.43;;;5.77;;
9948;SDS011;5013;51.840;8.276;2023-12-20T04:48:32;17.23;;;5.43;;
9948;SDS011;5013;51.840;8.276;2023-12-20T04:50:57;17.37;;;5.33;;
9948;SDS011;5013;51.840;8.276;2023-12-20T04:53:23;20.97;;;6.10;;
9948;SDS011;5013;51.840;8.276;2023-12-20T04:55:48;17.80;;;5.93;;
9948;SDS011;5013;51.840;8.276;2023-12-20T04:58:14;32.87;;;6.37;;
9948;SDS011;5013;51.840;8.276;2023-12-20T05:00:39;26.43;;;7.00;;
9948;SDS011;5013;51.840;8.276;2023-12-20T05:03:05;25.80;;;7.03;;
9948;SDS011;5013;51.840;8.276;2023-12-20T05:05:30;19.30;;;6.77;;
9948;SDS011;5013;51.840;8.276;2023-12-20T05:07:57;25.67;;;6.90;;
9948;SDS011;5013;51.840;8.276;2023-12-20T05:10:22;22.17;;;6.60;;
9948;SDS011;5013;51.840;8.276;2023-12-20T05:12:48;19.60;;;6.10;;
9948;SDS011;5013;51.840;8.276;2023-12-20T05:15:13;24.20;;;8.67;;
9948;SDS011;5013;51.840;8.276;2023-12-20T05:17:39;25.03;;;7.47;;
9948;SDS011;5013;51.840;8.276;2023-12-20T05:20:05;27.70;;;8.50;;
9948;SDS011;5013;51.840;8.276;2023-12-20T05:22:31;29.67;;;8.40;;
9948;SDS011;5013;51.840;8.276;2023-12-20T05:24:56;27.93;;;8.20;;
9948;SDS011;5013;51.840;8.276;2023-12-20T05:27:22;23.03;;;8.33;;
9948;SDS011;5013;51.840;8.276;2023-12-20T05:29:47;30.00;;;8.67;;
9948;SDS011;5013;51.840;8.276;2023-12-20T05:32:13;26.53;;;8.43;;
9948;SDS011;5013;51.840;8.276;2023-12-20T05:34:38;22.77;;;8.90;;
9948;SDS011;5013;51.840;8.276;2023-12-20T05:37:04;23.73;;;8.77;;
9948;SDS011;5013;51.840;8.276;2023-12-20T05:39:29;25.70;;;9.77;;
9948;SDS011;5013;51.840;8.276;2023-12-20T05:41:56;23.60;;;8.93;;
9948;SDS011;5013;51.840;8.276;2023-12-20T05:44:21;28.50;;;8.80;;
9948;SDS011;5013;51.840;8.276;2023-12-20T05:46:47;30.70;;;9.27;;
9948;SDS011;5013;51.840;8.276;2023-12-20T05:49:12;26.00;;;8.87;;
9948;SDS011;5013;51.840;8.276;2023-12-20T05:51:38;29.97;;;9.53;;
9948;SDS011;5013;51.840;8.276;2023-12-20T05:54:04;26.70;;;8.63;;
9948;SDS011;5013;51.840;8.276;2023-12-20T05:56:30;25.40;;;9.60;;
9948;SDS011;5013;51.840;8.276;2023-12-20T05:58:55;29.07;;;9.20;;
9948;SDS011;5013;51.840;8.276;2023-12-20T06:01:21;27.93;;;9.10;;
9948;SDS011;5013;51.840;8.276;2023-12-20T06:03:46;27.87;;;8.57;;
9948;SDS011;5013;51.840;8.276;2023-12-20T06:06:12;23.17;;;9.77;;
9948;SDS011;5013;51.840;8.276;2023-12-20T06:08:38;30.67;;;9.73;;
9948;SDS011;5013;51.840;8.276;2023-12-20T06:11:03;29.47;;;9.70;;
9948;SDS011;5013;51.840;8.276;2023-12-20T06:13:30;20.47;;;8.53;;
9948;SDS011;5013;51.840;8.276;2023-12-20T06:15:56;31.60;;;10.00;;
9948;SDS011;5013;51.840;8.276;2023-12-20T06:18:21;25.97;;;9.70;;
9948;SDS011;5013;51.840;8.276;2023-12-20T06:20:47;38.23;;;10.57;;
9948;SDS011;5013;51.840;8.276;2023-12-20T06:23:12;33.60;;;9.87;;
9948;SDS011;5013;51.840;8.276;2023-12-20T06:25:38;33.03;;;10.10;;
9948;SDS011;5013;51.840;8.276;2023-12-20T06:28:04;28.43;;;9.70;;
9948;SDS011;5013;51.840;8.276;2023-12-20T06:30:30;33.60;;;10.33;;
9948;SDS011;5013;51.840;8.276;2023-12-20T06:32:57;31.67;;;10.03;;
9948;SDS011;5013;51.840;8.276;2023-12-20T06:35:23;38.57;;;9.60;;
9948;SDS011;5013;51.840;8.276;2023-12-20T06:37:49;30.60;;;10.10;;
9948;SDS011;5013;51.840;8.276;2023-12-20T06:40:15;32.67;;;9.03;;
9948;SDS011;5013;51.840;8.276;2023-12-20T06:42:41;25.43;;;8.07;;
9948;SDS011;5013;51.840;8.276;2023-12-20T06:45:07;28.77;;;8.20;;
9948;SDS011;5013;51.840;8.276;2023-12-20T06:47:33;25.47;;;8.33;;
9948;SDS011;5013;51.840;8.276;2023-12-20T06:49:58;31.63;;;8.47;;
9948;SDS011;5013;51.840;8.276;2023-12-20T06:52:24;24.40;;;7.73;;
9948;SDS011;5013;51.840;8.276;2023-12-20T06:54:50;31.20;;;8.23;;
9948;SDS011;5013;51.840;8.276;2023-12-20T06:57:15;36.63;;;9.50;;
9948;SDS011;5013;51.840;8.276;2023-12-20T06:59:41;27.77;;;8.57;;
9948;SDS011;5013;51.840;8.276;2023-12-20T07:02:08;34.07;;;7.37;;
9948;SDS011;5013;51.840;8.276;2023-12-20T07:04:33;27.87;;;7.50;;
9948;SDS011;5013;51.840;8.276;2023-12-20T07:06:59;26.07;;;8.40;;
9948;SDS011;5013;51.840;8.276;2023-12-20T07:09:28;32.30;;;7.40;;
9948;SDS011;5013;51.840;8.276;2023-12-20T07:11:53;24.07;;;7.27;;
9948;SDS011;5013;51.840;8.276;2023-12-20T07:14:19;28.17;;;7.60;;
9948;SDS011;5013;51.840;8.276;2023-12-20T07:16:44;22.77;;;6.10;;
9948;SDS011;5013;51.840;8.276;2023-12-20T07:19:10;21.33;;;6.73;;
9948;SDS011;5013;51.840;8.276;2023-12-20T07:21:36;31.60;;;8.00;;
9948;SDS011;5013;51.840;8.276;2023-12-20T07:24:01;21.07;;;6.83;;
9948;SDS011;5013;51.840;8.276;2023-12-20T07:26:27;27.43;;;6.80;;
9948;SDS011;5013;51.840;8.276;2023-12-20T07:28:52;19.63;;;6.43;;
9948;SDS011;5013;51.840;8.276;2023-12-20T07:31:18;25.43;;;7.17;;
9948;SDS011;5013;51.840;8.276;2023-12-20T07:33:43;24.80;;;7.20;;
9948;SDS011;5013;51.840;8.276;2023-12-20T07:36:09;29.03;;;6.73;;
9948;SDS011;5013;51.840;8.276;2023-12-20T07:38:35;26.43;;;7.07;;
9948;SDS011;5013;51.840;8.276;2023-12-20T07:41:01;32.00;;;7.80;;
9948;SDS011;5013;51.840;8.276;2023-12-20T07:43:26;28.43;;;7.53;;
9948;SDS011;5013;51.840;8.276;2023-12-20T07:45:52;24.23;;;7.00;;
9948;SDS011;5013;51.840;8.276;2023-12-20T07:48:17;26.03;;;7.90;;
9948;SDS011;5013;51.840;8.276;2023-12-20T07:50:43;21.93;;;8.03;;
9948;SDS011;5013;51.840;8.276;2023-12-20T07:53:08;24.70;;;8.27;;
9948;SDS011;5013;51.840;8.276;2023-12-20T07:55:34;27.10;;;7.90;;
9948;SDS011;5013;51.840;8.276;2023-12-20T07:57:59;27.93;;;8.20;;
9948;SDS011;5013;51.840;8.276;2023-12-20T08:00:25;27.77;;;7.63;;
9948;SDS011;5013;51.840;8.276;2023-12-20T08:02:51;29.97;;;8.13;;
9948;SDS011;5013;51.840;8.276;2023-12-20T08:05:17;28.77;;;7.80;;
9948;SDS011;5013;51.840;8.276;2023-12-20T08:07:42;32.20;;;8.87;;
9948;SDS011;5013;51.840;8.276;2023-12-20T08:10:08;28.40;;;8.17;;
9948;SDS011;5013;51.840;8.276;2023-12-20T08:12:34;19.87;;;8.53;;
9948;SDS011;5013;51.840;8.276;2023-12-20T08:14:59;26.77;;;8.87;;
9948;SDS011;5013;51.840;8.276;2023-12-20T08:17:26;30.80;;;9.43;;
9948;SDS011;5013;51.840;8.276;2023-12-20T08:19:51;29.67;;;11.03;;
9948;SDS011;5013;51.840;8.276;2023-12-20T08:22:17;27.17;;;10.77;;
9948;SDS011;5013;51.840;8.276;2023-12-20T08:24:43;27.33;;;11.40;;
9948;SDS011;5013;51.840;8.276;2023-12-20T08:27:08;37.00;;;12.30;;
9948;SDS011;5013;51.840;8.276;2023-12-20T08:29:34;28.60;;;11.13;;
9948;SDS011;5013;51.840;8.276;2023-12-20T08:32:00;29.27;;;11.67;;
9948;SDS011;5013;51.840;8.276;2023-12-20T08:34:26;30.63;;;13.10;;
9948;SDS011;5013;51.840;8.276;2023-12-20T08:36:52;32.40;;;12.03;;
9948;SDS011;5013;51.840;8.276;2023-12-20T08:39:18;26.97;;;13.00;;
9948;SDS011;5013;51.840;8.276;2023-12-20T08:41:44;25.93;;;13.57;;
9948;SDS011;5013;51.840;8.276;2023-12-20T08:44:09;35.90;;;13.23;;
9948;SDS011;5013;51.840;8.276;2023-12-20T08:46:35;35.73;;;12.50;;
9948;SDS011;5013;51.840;8.276;2023-12-20T08:49:01;34.27;;;13.70;;
9948;SDS011;5013;51.840;8.276;2023-12-20T08:51:27;37.07;;;13.80;;
9948;SDS011;5013;51.840;8.276;2023-12-20T08:53:53;36.47;;;14.27;;
9948;SDS011;5013;51.840;8.276;2023-12-20T08:56:19;35.47;;;14.03;;
9948;SDS011;5013;51.840;8.276;2023-12-20T08:58:45;32.70;;;13.90;;
9948;SDS011;5013;51.840;8.276;2023-12-20T09:01:11;25.33;;;13.40;;
9948;SDS011;5013;51.840;8.276;2023-12-20T09:03:38;34.53;;;14.60;;
9948;SDS011;5013;51.840;8.276;2023-12-20T09:06:04;26.87;;;13.63;;
9948;SDS011;5013;51.840;8.276;2023-12-20T09:08:30;32.27;;;13.60;;
9948;SDS011;5013;51.840;8.276;2023-12-20T09:10:56;35.27;;;15.43;;
9948;SDS011;5013;51.840;8.276;2023-12-20T09:13:22;27.77;;;13.10;;
9948;SDS011;5013;51.840;8.276;2023-12-20T09:15:52;28.47;;;13.73;;
9948;SDS011;5013;51.840;8.276;2023-12-20T09:18:19;35.10;;;14.77;;
9948;SDS011;5013;51.840;8.276;2023-12-20T09:20:45;26.50;;;12.43;;
9948;SDS011;5013;51.840;8.276;2023-12-20T09:23:11;29.27;;;12.87;;
9948;SDS011;5013;51.840;8.276;2023-12-20T09:25:36;28.77;;;12.63;;
9948;SDS011;5013;51.840;8.276;2023-12-20T09:28:02;30.93;;;13.33;;
9948;SDS011;5013;51.840;8.276;2023-12-20T09:30:27;30.80;;;12.87;;
9948;SDS011;5013;51.840;8.276;2023-12-20T09:32:54;32.87;;;12.73;;
9948;SDS011;5013;51.840;8.276;2023-12-20T09:35:20;23.50;;;11.23;;
9948;SDS011;5013;51.840;8.276;2023-12-20T09:37:46;24.27;;;11.23;;
9948;SDS011;5013;51.840;8.276;2023-12-20T09:40:12;32.80;;;11.60;;
9948;SDS011;5013;51.840;8.276;2023-12-20T09:42:51;26.40;;;10.87;;
9948;SDS011;5013;51.840;8.276;2023-12-20T09:45:22;37.33;;;11.87;;
9948;SDS011;5013;51.840;8.276;2023-12-20T09:47:51;28.53;;;11.30;;
9948;SDS011;5013;51.840;8.276;2023-12-20T09:50:18;27.30;;;11.23;;
9948;SDS011;5013;51.840;8.276;2023-12-20T09:52:45;27.60;;;10.67;;
9948;SDS011;5013;51.840;8.276;2023-12-20T09:55:16;27.53;;;10.60;;
9948;SDS011;5013;51.840;8.276;2023-12-20T09:57:43;22.77;;;10.03;;
9948;SDS011;5013;51.840;8.276;2023-12-20T10:00:10;31.50;;;11.80;;
9948;SDS011;5013;51.840;8.276;2023-12-20T10:02:36;38.30;;;12.00;;
9948;SDS011;5013;51.840;8.276;2023-12-20T10:05:06;28.60;;;11.70;;
9948;SDS011;5013;51.840;8.276;2023-12-20T10:07:36;35.90;;;13.13;;
9948;SDS011;5013;51.840;8.276;2023-12-20T10:10:01;33.00;;;11.60;;
9948;SDS011;5013;51.840;8.276;2023-12-20T10:12:27;27.33;;;10.93;;
9948;SDS011;5013;51.840;8.276;2023-12-20T10:14:53;33.67;;;11.43;;
9948;SDS011;5013;51.840;8.276;2023-12-20T10:17:18;27.00;;;10.53;;
9948;SDS011;5013;51.840;8.276;2023-12-20T10:19:46;34.17;;;11.53;;
9948;SDS011;5013;51.840;8.276;2023-12-20T10:22:12;28.93;;;10.77;;
9948;SDS011;5013;51.840;8.276;2023-12-20T10:24:37;34.23;;;11.10;;
9948;SDS011;5013;51.840;8.276;2023-12-20T10:27:03;28.13;;;11.17;;
9948;SDS011;5013;51.840;8.276;2023-12-20T10:29:34;22.10;;;10.40;;
9948;SDS011;5013;51.840;8.276;2023-12-20T10:32:23;31.37;;;9.60;;
9948;SDS011;5013;51.840;8.276;2023-12-20T10:34:47;28.17;;;9.80;;
9948;SDS011;5013;51.840;8.276;2023-12-20T10:37:13;35.27;;;10.30;;
9948;SDS011;5013;51.840;8.276;2023-12-20T10:39:38;35.17;;;10.57;;
9948;SDS011;5013;51.840;8.276;2023-12-20T10:42:05;28.17;;;9.50;;
9948;SDS011;5013;51.840;8.276;2023-12-20T10:44:31;23.73;;;9.30;;
9948;SDS011;5013;51.840;8.276;2023-12-20T10:46:57;25.53;;;10.10;;
9948;SDS011;5013;51.840;8.276;2023-12-20T10:49:24;26.87;;;9.83;;
9948;SDS011;5013;51.840;8.276;2023-12-20T10:51:51;29.53;;;9.60;;
9948;SDS011;5013;51.840;8.276;2023-12-20T10:54:19;30.47;;;9.23;;
9948;SDS011;5013;51.840;8.276;2023-12-20T10:56:45;23.03;;;8.47;;
9948;SDS011;5013;51.840;8.276;2023-12-20T10:59:11;25.37;;;8.30;;
9948;SDS011;5013;51.840;8.276;2023-12-20T11:01:40;26.27;;;8.03;;
9948;SDS011;5013;51.840;8.276;2023-12-20T11:04:08;22.93;;;7.63;;
9948;SDS011;5013;51.840;8.276;2023-12-20T11:09:25;25.83;;;7.00;;
9948;SDS011;5013;51.840;8.276;2023-12-20T11:17:12;20.43;;;7.73;;
9948;SDS011;5013;51.840;8.276;2023-12-20T11:22:20;23.27;;;7.50;;
9948;SDS011;5013;51.840;8.276;2023-12-20T11:24:46;29.63;;;8.23;;
9948;SDS011;5013;51.840;8.276;2023-12-20T11:27:12;26.17;;;7.30;;
9948;SDS011;5013;51.840;8.276;2023-12-20T11:29:38;21.40;;;6.30;;
9948;SDS011;5013;51.840;8.276;2023-12-20T11:34:50;19.77;;;6.33;;
9948;SDS011;5013;51.840;8.276;2023-12-20T11:37:16;19.47;;;6.17;;
9948;SDS011;5013;51.840;8.276;2023-12-20T11:39:44;29.23;;;6.20;;
9948;SDS011;5013;51.840;8.276;2023-12-20T11:42:10;21.60;;;5.77;;
9948;SDS011;5013;51.840;8.276;2023-12-20T11:44:36;18.20;;;5.17;;
9948;SDS011;5013;51.840;8.276;2023-12-20T11:47:02;22.40;;;5.50;;
9948;SDS011;5013;51.840;8.276;2023-12-20T11:49:28;18.23;;;6.20;;
9948;SDS011;5013;51.840;8.276;2023-12-20T11:51:55;23.30;;;5.63;;
9948;SDS011;5013;51.840;8.276;2023-12-20T11:54:21;21.37;;;6.77;;
9948;SDS011;5013;51.840;8.276;2023-12-20T11:56:47;21.83;;;6.47;;
9948;SDS011;5013;51.840;8.276;2023-12-20T11:59:13;22.67;;;6.67;;
9948;SDS011;5013;51.840;8.276;2023-12-20T12:01:39;28.47;;;6.90;;
9948;SDS011;5013;51.840;8.276;2023-12-20T12:04:04;22.20;;;5.90;;
9948;SDS011;5013;51.840;8.276;2023-12-20T12:06:31;17.93;;;5.90;;
9948;SDS011;5013;51.840;8.276;2023-12-20T12:08:57;19.03;;;6.57;;
9948;SDS011;5013;51.840;8.276;2023-12-20T12:11:23;15.80;;;6.33;;
9948;SDS011;5013;51.840;8.276;2023-12-20T12:13:48;21.30;;;6.13;;
9948;SDS011;5013;51.840;8.276;2023-12-20T12:16:17;16.87;;;5.33;;
9948;SDS011;5013;51.840;8.276;2023-12-20T12:18:54;16.40;;;5.30;;
9948;SDS011;5013;51.840;8.276;2023-12-20T12:21:20;15.17;;;5.23;;
9948;SDS011;5013;51.840;8.276;2023-12-20T12:23:46;15.53;;;5.10;;
9948;SDS011;5013;51.840;8.276;2023-12-20T12:26:11;13.10;;;4.40;;
9948;SDS011;5013;51.840;8.276;2023-12-20T12:28:39;19.53;;;5.00;;
9948;SDS011;5013;51.840;8.276;2023-12-20T12:31:06;23.57;;;6.77;;
9948;SDS011;5013;51.840;8.276;2023-12-20T12:33:32;17.27;;;5.17;;
9948;SDS011;5013;51.840;8.276;2023-12-20T12:35:57;19.50;;;5.67;;
9948;SDS011;5013;51.840;8.276;2023-12-20T12:38:24;20.53;;;5.40;;
9948;SDS011;5013;51.840;8.276;2023-12-20T12:40:50;15.20;;;5.37;;
9948;SDS011;5013;51.840;8.276;2023-12-20T12:43:18;15.83;;;5.10;;
9948;SDS011;5013;51.840;8.276;2023-12-20T12:45:44;17.90;;;5.10;;
9948;SDS011;5013;51.840;8.276;2023-12-20T12:48:09;17.63;;;5.37;;
9948;SDS011;5013;51.840;8.276;2023-12-20T12:50:35;19.03;;;5.17;;
9948;SDS011;5013;51.840;8.276;2023-12-20T12:53:00;24.40;;;5.80;;
9948;SDS011;5013;51.840;8.276;2023-12-20T12:55:27;19.13;;;5.50;;
9948;SDS011;5013;51.840;8.276;2023-12-20T12:57:53;19.20;;;5.90;;
9948;SDS011;5013;51.840;8.276;2023-12-20T13:00:19;18.70;;;5.63;;
9948;SDS011;5013;51.840;8.276;2023-12-20T13:02:45;16.83;;;5.40;;
9948;SDS011;5013;51.840;8.276;2023-12-20T13:05:10;21.53;;;6.70;;
9948;SDS011;5013;51.840;8.276;2023-12-20T13:07:36;16.93;;;4.83;;
9948;SDS011;5013;51.840;8.276;2023-12-20T13:10:02;16.10;;;5.07;;
9948;SDS011;5013;51.840;8.276;2023-12-20T13:12:29;16.77;;;5.00;;
9948;SDS011;5013;51.840;8.276;2023-12-20T13:14:54;18.93;;;5.07;;
9948;SDS011;5013;51.840;8.276;2023-12-20T13:17:20;16.93;;;4.80;;
9948;SDS011;5013;51.840;8.276;2023-12-20T13:19:46;21.63;;;5.50;;
9948;SDS011;5013;51.840;8.276;2023-12-20T13:22:11;18.20;;;4.77;;
9948;SDS011;5013;51.840;8.276;2023-12-20T13:24:37;22.57;;;5.10;;
9948;SDS011;5013;51.840;8.276;2023-12-20T13:27:02;15.30;;;4.30;;
9948;SDS011;5013;51.840;8.276;2023-12-20T13:29:28;20.83;;;5.27;;
9948;SDS011;5013;51.840;8.276;2023-12-20T13:31:54;24.40;;;4.67;;
9948;SDS011;5013;51.840;8.276;2023-12-20T13:34:19;17.13;;;4.77;;
9948;SDS011;5013;51.840;8.276;2023-12-20T13:36:46;17.27;;;4.83;;
9948;SDS011;5013;51.840;8.276;2023-12-20T13:39:12;19.77;;;5.37;;
9948;SDS011;5013;51.840;8.276;2023-12-20T13:41:38;19.80;;;5.83;;
9948;SDS011;5013;51.840;8.276;2023-12-20T13:44:04;16.43;;;5.33;;
9948;SDS011;5013;51.840;8.276;2023-12-20T13:46:30;22.13;;;6.07;;
9948;SDS011;5013;51.840;8.276;2023-12-20T13:48:56;17.93;;;5.00;;
9948;SDS011;5013;51.840;8.276;2023-12-20T13:51:21;17.03;;;5.30;;
9948;SDS011;5013;51.840;8.276;2023-12-20T13:53:47;22.63;;;5.73;;
9948;SDS011;5013;51.840;8.276;2023-12-20T13:56:13;18.20;;;5.50;;
9948;SDS011;5013;51.840;8.276;2023-12-20T13:58:40;20.73;;;5.27;;
9948;SDS011;5013;51.840;8.276;2023-12-20T14:01:06;22.80;;;5.87;;
9948;SDS011;5013;51.840;8.276;2023-12-20T14:03:32;20.43;;;5.97;;
9948;SDS011;5013;51.840;8.276;2023-12-20T14:05:58;25.93;;;6.30;;
9948;SDS011;5013;51.840;8.276;2023-12-20T14:08:26;18.57;;;6.83;;
9948;SDS011;5013;51.840;8.276;2023-12-20T14:10:52;21.03;;;6.77;;
9948;SDS011;5013;51.840;8.276;2023-12-20T14:13:18;28.67;;;6.60;;
9948;SDS011;5013;51.840;8.276;2023-12-20T14:15:44;18.10;;;6.33;;
9948;SDS011;5013;51.840;8.276;2023-12-20T14:18:09;17.10;;;6.27;;
9948;SDS011;5013;51.840;8.276;2023-12-20T14:20:35;17.27;;;6.33;;
9948;SDS011;5013;51.840;8.276;2023-12-20T14:23:04;16.77;;;5.83;;
9948;SDS011;5013;51.840;8.276;2023-12-20T14:25:29;29.67;;;8.20;;
9948;SDS011;5013;51.840;8.276;2023-12-20T14:27:56;23.23;;;7.03;;
9948;SDS011;5013;51.840;8.276;2023-12-20T14:30:22;22.80;;;6.57;;
9948;SDS011;5013;51.840;8.276;2023-12-20T14:32:48;15.73;;;7.10;;
9948;SDS011;5013;51.840;8.276;2023-12-20T14:35:14;17.50;;;5.77;;
9948;SDS011;5013;51.840;8.276;2023-12-20T14:37:40;24.00;;;6.50;;
9948;SDS011;5013;51.840;8.276;2023-12-20T14:40:06;21.97;;;6.83;;
9948;SDS011;5013;51.840;8.276;2023-12-20T14:42:35;21.77;;;6.67;;
9948;SDS011;5013;51.840;8.276;2023-12-20T14:45:02;20.03;;;6.10;;
9948;SDS011;5013;51.840;8.276;2023-12-20T14:47:27;14.87;;;5.93;;
9948;SDS011;5013;51.840;8.276;2023-12-20T14:49:53;24.77;;;6.27;;
9948;SDS011;5013;51.840;8.276;2023-12-20T14:52:18;21.97;;;6.40;;
9948;SDS011;5013;51.840;8.276;2023-12-20T14:54:44;24.07;;;6.53;;
9948;SDS011;5013;51.840;8.276;2023-12-20T14:57:10;18.10;;;5.67;;
9948;SDS011;5013;51.840;8.276;2023-12-20T14:59:35;21.73;;;5.93;;
9948;SDS011;5013;51.840;8.276;2023-12-20T15:02:01;20.10;;;6.30;;
9948;SDS011;5013;51.840;8.276;2023-12-20T15:04:30;42.53;;;13.83;;